sensor_id;sensor_type;location;lat;lon;timestamp;P1;durP1;ratioP1;P2;durP2;ratioP2
14400;SDS011;7285;50.894;5.462;2023-03-01T00:01:13;1.70;;;1.70;;
14400;SDS011;7285;50.894;5.462;2023-03-01T00:03:43;1.80;;;1.80;;
14400;SDS011;7285;50.894;5.462;2023-03-01T00:06:11;1.80;;;1.80;;
14400;SDS011;7285;50.894;5.462;2023-03-01T00:08:38;1.53;;;1.53;;
14400;SDS011;7285;50.894;5.462;2023-03-01T00:11:06;1.70;;;1.70;;
14400;SDS011;7285;50.894;5.462;2023-03-01T00:13:34;1.80;;;1.80;;
14400;SDS011;7285;50.894;5.462;2023-03-01T00:16:02;1.87;;;1.87;;
14400;SDS011;7285;50.894;5.462;2023-03-01T00:18:30;1.80;;;1.80;;
14400;SDS011;7285;50.894;5.462;2023-03-01T00:20:59;1.87;;;1.87;;
14400;SDS011;7285;50.894;5.462;2023-03-01T00:23:26;2.00;;;2.00;;
14400;SDS011;7285;50.894;5.462;2023-03-01T00:25:53;1.60;;;1.60;;
14400;SDS011;7285;50.894;5.462;2023-03-01T00:28:21;1.70;;;1.70;;
14400;SDS011;7285;50.894;5.462;2023-03-01T00:30:48;1.80;;;1.80;;
14400;SDS011;7285;50.894;5.462;2023-03-01T00:33:15;2.00;;;2.00;;
14400;SDS011;7285;50.894;5.462;2023-03-01T00:35:42;1.70;;;1.70;;
14400;SDS011;7285;50.894;5.462;2023-03-01T00:38:10;2.03;;;2.03;;
14400;SDS011;7285;50.894;5.462;2023-03-01T00:40:37;1.83;;;1.83;;
14400;SDS011;7285;50.894;5.462;2023-03-01T00:43:04;1.83;;;1.83;;
14400;SDS011;7285;50.894;5.462;2023-03-01T00:45:32;1.80;;;1.80;;
14400;SDS011;7285;50.894;5.462;2023-03-01T00:47:59;1.90;;;1.90;;
14400;SDS011;7285;50.894;5.462;2023-03-01T00:50:26;1.70;;;1.70;;
14400;SDS011;7285;50.894;5.462;2023-03-01T00:52:54;1.87;;;1.87;;
14400;SDS011;7285;50.894;5.462;2023-03-01T00:55:23;1.90;;;1.90;;
14400;SDS011;7285;50.894;5.462;2023-03-01T00:57:50;1.80;;;1.80;;
14400;SDS011;7285;50.894;5.462;2023-03-01T01:00:18;2.53;;;2.53;;
14400;SDS011;7285;50.894;5.462;2023-03-01T01:02:45;2.07;;;2.07;;
14400;SDS011;7285;50.894;5.462;2023-03-01T01:05:12;2.00;;;2.00;;
14400;SDS011;7285;50.894;5.462;2023-03-01T01:07:39;1.63;;;1.63;;
14400;SDS011;7285;50.894;5.462;2023-03-01T01:10:07;1.90;;;1.90;;
14400;SDS011;7285;50.894;5.462;2023-03-01T01:12:39;2.10;;;2.10;;
14400;SDS011;7285;50.894;5.462;2023-03-01T01:15:06;2.33;;;2.33;;
14400;SDS011;7285;50.894;5.462;2023-03-01T01:17:37;1.80;;;1.80;;
14400;SDS011;7285;50.894;5.462;2023-03-01T01:20:04;1.90;;;1.90;;
14400;SDS011;7285;50.894;5.462;2023-03-01T01:22:32;2.00;;;2.00;;
14400;SDS011;7285;50.894;5.462;2023-03-01T01:24:59;1.77;;;1.77;;
14400;SDS011;7285;50.894;5.462;2023-03-01T01:27:41;1.97;;;1.97;;
14400;SDS011;7285;50.894;5.462;2023-03-01T01:30:09;1.90;;;1.90;;
14400;SDS011;7285;50.894;5.462;2023-03-01T01:32:36;2.00;;;2.00;;
14400;SDS011;7285;50.894;5.462;2023-03-01T01:35:04;1.80;;;1.80;;
14400;SDS011;7285;50.894;5.462;2023-03-01T01:37:31;1.90;;;1.90;;
14400;SDS011;7285;50.894;5.462;2023-03-01T01:39:58;1.90;;;1.90;;
14400;SDS011;7285;50.894;5.462;2023-03-01T01:42:26;1.90;;;1.90;;
14400;SDS011;7285;50.894;5.462;2023-03-01T01:47:54;2.00;;;2.00;;
14400;SDS011;7285;50.894;5.462;2023-03-01T01:50:23;2.00;;;2.00;;
14400;SDS011;7285;50.894;5.462;2023-03-01T01:52:50;2.00;;;2.00;;
14400;SDS011;7285;50.894;5.462;2023-03-01T01:55:20;2.00;;;2.00;;
14400;SDS011;7285;50.894;5.462;2023-03-01T01:57:50;1.87;;;1.87;;
14400;SDS011;7285;50.894;5.462;2023-03-01T02:00:21;1.97;;;1.97;;
14400;SDS011;7285;50.894;5.462;2023-03-01T02:02:51;1.83;;;1.83;;
14400;SDS011;7285;50.894;5.462;2023-03-01T02:05:24;1.87;;;1.87;;
14400;SDS011;7285;50.894;5.462;2023-03-01T02:07:58;3.30;;;3.20;;
14400;SDS011;7285;50.894;5.462;2023-03-01T02:10:25;1.90;;;1.90;;
14400;SDS011;7285;50.894;5.462;2023-03-01T02:12:58;1.90;;;1.90;;
14400;SDS011;7285;50.894;5.462;2023-03-01T02:15:26;1.70;;;1.70;;
14400;SDS011;7285;50.894;5.462;2023-03-01T02:17:54;1.97;;;1.97;;
14400;SDS011;7285;50.894;5.462;2023-03-01T02:20:23;1.90;;;1.90;;
14400;SDS011;7285;50.894;5.462;2023-03-01T02:22:55;2.00;;;2.00;;
14400;SDS011;7285;50.894;5.462;2023-03-01T02:25:28;1.73;;;1.73;;
14400;SDS011;7285;50.894;5.462;2023-03-01T02:28:02;2.00;;;2.00;;
14400;SDS011;7285;50.894;5.462;2023-03-01T02:30:38;1.90;;;1.90;;
14400;SDS011;7285;50.894;5.462;2023-03-01T02:33:26;2.00;;;2.00;;
14400;SDS011;7285;50.894;5.462;2023-03-01T02:35:52;2.10;;;2.10;;
14400;SDS011;7285;50.894;5.462;2023-03-01T02:38:21;2.00;;;2.00;;
14400;SDS011;7285;50.894;5.462;2023-03-01T02:40:50;2.10;;;2.10;;
14400;SDS011;7285;50.894;5.462;2023-03-01T02:43:18;2.17;;;2.17;;
14400;SDS011;7285;50.894;5.462;2023-03-01T02:45:49;1.80;;;1.80;;
14400;SDS011;7285;50.894;5.462;2023-03-01T02:48:16;1.83;;;1.83;;
14400;SDS011;7285;50.894;5.462;2023-03-01T02:50:46;1.90;;;1.90;;
14400;SDS011;7285;50.894;5.462;2023-03-01T02:53:27;1.80;;;1.80;;
14400;SDS011;7285;50.894;5.462;2023-03-01T02:56:02;2.00;;;2.00;;
14400;SDS011;7285;50.894;5.462;2023-03-01T02:58:29;2.10;;;2.10;;
14400;SDS011;7285;50.894;5.462;2023-03-01T03:00:57;1.90;;;1.90;;
14400;SDS011;7285;50.894;5.462;2023-03-01T03:03:25;2.30;;;2.30;;
14400;SDS011;7285;50.894;5.462;2023-03-01T03:05:52;1.80;;;1.80;;
14400;SDS011;7285;50.894;5.462;2023-03-01T03:08:19;1.93;;;1.93;;
14400;SDS011;7285;50.894;5.462;2023-03-01T03:10:48;1.90;;;1.90;;
14400;SDS011;7285;50.894;5.462;2023-03-01T03:13:15;2.10;;;2.10;;
14400;SDS011;7285;50.894;5.462;2023-03-01T03:15:44;2.00;;;2.00;;
14400;SDS011;7285;50.894;5.462;2023-03-01T03:18:13;1.90;;;1.90;;
14400;SDS011;7285;50.894;5.462;2023-03-01T03:20:42;2.13;;;2.13;;
14400;SDS011;7285;50.894;5.462;2023-03-01T03:23:10;2.10;;;2.10;;
14400;SDS011;7285;50.894;5.462;2023-03-01T03:25:37;1.90;;;1.90;;
14400;SDS011;7285;50.894;5.462;2023-03-01T03:28:05;1.93;;;1.93;;
14400;SDS011;7285;50.894;5.462;2023-03-01T03:30:36;1.90;;;1.90;;
14400;SDS011;7285;50.894;5.462;2023-03-01T03:33:05;1.97;;;1.97;;
14400;SDS011;7285;50.894;5.462;2023-03-01T03:35:37;1.90;;;1.90;;
14400;SDS011;7285;50.894;5.462;2023-03-01T03:38:06;2.00;;;2.00;;
14400;SDS011;7285;50.894;5.462;2023-03-01T03:40:41;2.00;;;2.00;;
14400;SDS011;7285;50.894;5.462;2023-03-01T03:43:10;2.00;;;2.00;;
14400;SDS011;7285;50.894;5.462;2023-03-01T03:45:39;2.00;;;2.00;;
14400;SDS011;7285;50.894;5.462;2023-03-01T03:48:07;3.33;;;3.23;;
14400;SDS011;7285;50.894;5.462;2023-03-01T03:50:37;2.00;;;2.00;;
14400;SDS011;7285;50.894;5.462;2023-03-01T03:53:06;1.90;;;1.90;;
14400;SDS011;7285;50.894;5.462;2023-03-01T03:55:34;2.10;;;2.10;;
14400;SDS011;7285;50.894;5.462;2023-03-01T03:58:04;1.90;;;1.90;;
14400;SDS011;7285;50.894;5.462;2023-03-01T04:00:33;2.00;;;2.00;;
14400;SDS011;7285;50.894;5.462;2023-03-01T04:03:01;1.90;;;1.90;;
14400;SDS011;7285;50.894;5.462;2023-03-01T04:05:28;2.10;;;2.10;;
14400;SDS011;7285;50.894;5.462;2023-03-01T04:07:57;2.10;;;2.10;;
14400;SDS011;7285;50.894;5.462;2023-03-01T04:10:28;2.00;;;2.00;;
14400;SDS011;7285;50.894;5.462;2023-03-01T04:12:55;2.40;;;2.40;;
14400;SDS011;7285;50.894;5.462;2023-03-01T04:15:23;1.90;;;1.90;;
14400;SDS011;7285;50.894;5.462;2023-03-01T04:17:52;2.77;;;2.77;;
14400;SDS011;7285;50.894;5.462;2023-03-01T04:20:22;1.97;;;1.97;;
14400;SDS011;7285;50.894;5.462;2023-03-01T04:22:51;2.10;;;2.10;;
14400;SDS011;7285;50.894;5.462;2023-03-01T04:25:20;1.90;;;1.90;;
14400;SDS011;7285;50.894;5.462;2023-03-01T04:27:50;1.97;;;1.97;;
14400;SDS011;7285;50.894;5.462;2023-03-01T04:30:17;2.10;;;2.10;;
14400;SDS011;7285;50.894;5.462;2023-03-01T04:32:44;1.90;;;1.90;;
14400;SDS011;7285;50.894;5.462;2023-03-01T04:35:11;1.90;;;1.90;;
14400;SDS011;7285;50.894;5.462;2023-03-01T04:37:38;2.00;;;2.00;;
14400;SDS011;7285;50.894;5.462;2023-03-01T04:40:07;2.00;;;2.00;;
14400;SDS011;7285;50.894;5.462;2023-03-01T04:42:42;1.80;;;1.80;;
14400;SDS011;7285;50.894;5.462;2023-03-01T04:45:10;2.00;;;2.00;;
14400;SDS011;7285;50.894;5.462;2023-03-01T04:47:39;2.10;;;2.10;;
14400;SDS011;7285;50.894;5.462;2023-03-01T04:50:08;1.80;;;1.80;;
14400;SDS011;7285;50.894;5.462;2023-03-01T04:52:36;2.00;;;2.00;;
14400;SDS011;7285;50.894;5.462;2023-03-01T04:55:03;2.07;;;2.07;;
14400;SDS011;7285;50.894;5.462;2023-03-01T04:57:32;2.20;;;2.20;;
14400;SDS011;7285;50.894;5.462;2023-03-01T05:00:00;2.53;;;2.47;;
14400;SDS011;7285;50.894;5.462;2023-03-01T05:02:44;2.60;;;2.60;;
14400;SDS011;7285;50.894;5.462;2023-03-01T05:05:13;2.60;;;2.60;;
14400;SDS011;7285;50.894;5.462;2023-03-01T05:07:40;2.27;;;2.27;;
14400;SDS011;7285;50.894;5.462;2023-03-01T05:10:08;2.03;;;2.03;;
14400;SDS011;7285;50.894;5.462;2023-03-01T05:12:35;2.20;;;2.20;;
14400;SDS011;7285;50.894;5.462;2023-03-01T05:15:05;2.00;;;2.00;;
14400;SDS011;7285;50.894;5.462;2023-03-01T05:17:33;2.00;;;2.00;;
14400;SDS011;7285;50.894;5.462;2023-03-01T05:20:00;2.10;;;2.10;;
14400;SDS011;7285;50.894;5.462;2023-03-01T05:22:31;1.70;;;1.70;;
14400;SDS011;7285;50.894;5.462;2023-03-01T05:24:58;1.93;;;1.93;;
14400;SDS011;7285;50.894;5.462;2023-03-01T05:27:24;1.93;;;1.93;;
14400;SDS011;7285;50.894;5.462;2023-03-01T05:29:51;2.10;;;2.10;;
14400;SDS011;7285;50.894;5.462;2023-03-01T05:32:20;2.00;;;2.00;;
14400;SDS011;7285;50.894;5.462;2023-03-01T05:34:49;2.20;;;2.20;;
14400;SDS011;7285;50.894;5.462;2023-03-01T05:37:17;1.90;;;1.90;;
14400;SDS011;7285;50.894;5.462;2023-03-01T05:39:44;2.00;;;2.00;;
14400;SDS011;7285;50.894;5.462;2023-03-01T05:42:11;1.80;;;1.80;;
14400;SDS011;7285;50.894;5.462;2023-03-01T05:44:38;2.00;;;2.00;;
14400;SDS011;7285;50.894;5.462;2023-03-01T05:47:05;2.10;;;2.10;;
14400;SDS011;7285;50.894;5.462;2023-03-01T05:49:34;1.80;;;1.80;;
14400;SDS011;7285;50.894;5.462;2023-03-01T05:52:01;1.90;;;1.90;;
14400;SDS011;7285;50.894;5.462;2023-03-01T05:54:28;2.77;;;2.67;;
14400;SDS011;7285;50.894;5.462;2023-03-01T05:56:54;1.90;;;1.90;;
14400;SDS011;7285;50.894;5.462;2023-03-01T05:59:22;1.90;;;1.90;;
14400;SDS011;7285;50.894;5.462;2023-03-01T06:01:49;1.90;;;1.90;;
14400;SDS011;7285;50.894;5.462;2023-03-01T06:04:16;1.70;;;1.70;;
14400;SDS011;7285;50.894;5.462;2023-03-01T06:06:44;2.10;;;2.10;;
14400;SDS011;7285;50.894;5.462;2023-03-01T06:09:11;2.00;;;2.00;;
14400;SDS011;7285;50.894;5.462;2023-03-01T06:11:41;1.90;;;1.90;;
14400;SDS011;7285;50.894;5.462;2023-03-01T06:14:09;1.90;;;1.90;;
14400;SDS011;7285;50.894;5.462;2023-03-01T06:16:39;2.00;;;2.00;;
14400;SDS011;7285;50.894;5.462;2023-03-01T06:19:06;2.10;;;2.10;;
14400;SDS011;7285;50.894;5.462;2023-03-01T06:21:33;1.90;;;1.90;;
14400;SDS011;7285;50.894;5.462;2023-03-01T06:24:01;1.90;;;1.90;;
14400;SDS011;7285;50.894;5.462;2023-03-01T06:26:29;2.33;;;2.33;;
14400;SDS011;7285;50.894;5.462;2023-03-01T06:28:56;2.00;;;2.00;;
14400;SDS011;7285;50.894;5.462;2023-03-01T06:31:23;1.93;;;1.93;;
14400;SDS011;7285;50.894;5.462;2023-03-01T06:33:50;2.00;;;2.00;;
14400;SDS011;7285;50.894;5.462;2023-03-01T06:36:17;2.13;;;2.13;;
14400;SDS011;7285;50.894;5.462;2023-03-01T06:38:46;2.00;;;2.00;;
14400;SDS011;7285;50.894;5.462;2023-03-01T06:41:14;2.10;;;2.10;;
14400;SDS011;7285;50.894;5.462;2023-03-01T06:43:48;2.03;;;2.03;;
14400;SDS011;7285;50.894;5.462;2023-03-01T06:46:15;1.80;;;1.80;;
14400;SDS011;7285;50.894;5.462;2023-03-01T06:48:53;1.73;;;1.73;;
14400;SDS011;7285;50.894;5.462;2023-03-01T06:51:21;1.87;;;1.87;;
14400;SDS011;7285;50.894;5.462;2023-03-01T06:53:48;1.80;;;1.80;;
14400;SDS011;7285;50.894;5.462;2023-03-01T06:56:16;1.70;;;1.70;;
14400;SDS011;7285;50.894;5.462;2023-03-01T06:58:43;2.00;;;2.00;;
14400;SDS011;7285;50.894;5.462;2023-03-01T07:01:10;1.67;;;1.67;;
14400;SDS011;7285;50.894;5.462;2023-03-01T07:03:37;1.80;;;1.80;;
14400;SDS011;7285;50.894;5.462;2023-03-01T07:06:05;1.80;;;1.80;;
14400;SDS011;7285;50.894;5.462;2023-03-01T07:08:32;2.00;;;2.00;;
14400;SDS011;7285;50.894;5.462;2023-03-01T07:10:59;1.90;;;1.90;;
14400;SDS011;7285;50.894;5.462;2023-03-01T07:13:28;2.43;;;2.33;;
14400;SDS011;7285;50.894;5.462;2023-03-01T07:15:55;1.90;;;1.90;;
14400;SDS011;7285;50.894;5.462;2023-03-01T07:18:22;2.00;;;2.00;;
14400;SDS011;7285;50.894;5.462;2023-03-01T07:20:50;1.90;;;1.90;;
14400;SDS011;7285;50.894;5.462;2023-03-01T07:23:17;1.80;;;1.80;;
14400;SDS011;7285;50.894;5.462;2023-03-01T07:25:44;2.30;;;2.30;;
14400;SDS011;7285;50.894;5.462;2023-03-01T07:28:17;1.77;;;1.77;;
14400;SDS011;7285;50.894;5.462;2023-03-01T07:30:45;1.80;;;1.80;;
14400;SDS011;7285;50.894;5.462;2023-03-01T07:33:14;2.47;;;2.47;;
14400;SDS011;7285;50.894;5.462;2023-03-01T07:35:42;1.87;;;1.87;;
14400;SDS011;7285;50.894;5.462;2023-03-01T07:38:09;1.80;;;1.80;;
14400;SDS011;7285;50.894;5.462;2023-03-01T07:40:36;1.77;;;1.77;;
14400;SDS011;7285;50.894;5.462;2023-03-01T07:43:03;1.70;;;1.70;;
14400;SDS011;7285;50.894;5.462;2023-03-01T07:45:30;2.00;;;2.00;;
14400;SDS011;7285;50.894;5.462;2023-03-01T07:47:59;1.90;;;1.90;;
14400;SDS011;7285;50.894;5.462;2023-03-01T07:50:26;2.27;;;2.27;;
14400;SDS011;7285;50.894;5.462;2023-03-01T07:52:53;1.60;;;1.60;;
14400;SDS011;7285;50.894;5.462;2023-03-01T07:55:30;2.10;;;2.10;;
14400;SDS011;7285;50.894;5.462;2023-03-01T07:57:57;2.13;;;2.13;;
14400;SDS011;7285;50.894;5.462;2023-03-01T08:00:24;2.10;;;2.10;;
14400;SDS011;7285;50.894;5.462;2023-03-01T08:02:51;1.70;;;1.70;;
14400;SDS011;7285;50.894;5.462;2023-03-01T08:05:20;1.70;;;1.70;;
14400;SDS011;7285;50.894;5.462;2023-03-01T08:07:47;1.60;;;1.60;;
14400;SDS011;7285;50.894;5.462;2023-03-01T08:10:14;1.70;;;1.70;;
14400;SDS011;7285;50.894;5.462;2023-03-01T08:12:41;1.80;;;1.80;;
14400;SDS011;7285;50.894;5.462;2023-03-01T08:15:08;1.70;;;1.70;;
14400;SDS011;7285;50.894;5.462;2023-03-01T08:17:36;1.80;;;1.80;;
14400;SDS011;7285;50.894;5.462;2023-03-01T08:20:03;2.47;;;2.47;;
14400;SDS011;7285;50.894;5.462;2023-03-01T08:22:33;1.70;;;1.70;;
14400;SDS011;7285;50.894;5.462;2023-03-01T08:25:00;1.70;;;1.70;;
14400;SDS011;7285;50.894;5.462;2023-03-01T08:27:27;1.60;;;1.60;;
14400;SDS011;7285;50.894;5.462;2023-03-01T08:29:54;1.50;;;1.50;;
14400;SDS011;7285;50.894;5.462;2023-03-01T08:32:21;1.80;;;1.80;;
14400;SDS011;7285;50.894;5.462;2023-03-01T08:34:48;1.70;;;1.70;;
14400;SDS011;7285;50.894;5.462;2023-03-01T08:37:15;1.70;;;1.70;;
14400;SDS011;7285;50.894;5.462;2023-03-01T08:39:44;1.97;;;1.97;;
14400;SDS011;7285;50.894;5.462;2023-03-01T08:42:11;1.50;;;1.50;;
14400;SDS011;7285;50.894;5.462;2023-03-01T08:44:38;1.60;;;1.60;;
14400;SDS011;7285;50.894;5.462;2023-03-01T08:47:05;1.90;;;1.90;;
14400;SDS011;7285;50.894;5.462;2023-03-01T08:49:32;1.47;;;1.47;;
14400;SDS011;7285;50.894;5.462;2023-03-01T08:51:59;1.53;;;1.53;;
14400;SDS011;7285;50.894;5.462;2023-03-01T08:54:27;1.57;;;1.57;;
14400;SDS011;7285;50.894;5.462;2023-03-01T08:56:56;1.60;;;1.60;;
14400;SDS011;7285;50.894;5.462;2023-03-01T08:59:24;1.87;;;1.87;;
14400;SDS011;7285;50.894;5.462;2023-03-01T09:01:51;1.80;;;1.80;;
14400;SDS011;7285;50.894;5.462;2023-03-01T09:04:18;2.47;;;2.47;;
14400;SDS011;7285;50.894;5.462;2023-03-01T09:06:45;2.13;;;2.13;;
14400;SDS011;7285;50.894;5.462;2023-03-01T09:09:13;1.60;;;1.60;;
14400;SDS011;7285;50.894;5.462;2023-03-01T09:11:41;1.20;;;1.20;;
14400;SDS011;7285;50.894;5.462;2023-03-01T09:14:12;2.00;;;2.00;;
14400;SDS011;7285;50.894;5.462;2023-03-01T09:16:39;1.50;;;1.50;;
14400;SDS011;7285;50.894;5.462;2023-03-01T09:19:06;1.30;;;1.30;;
14400;SDS011;7285;50.894;5.462;2023-03-01T09:21:33;1.30;;;1.30;;
14400;SDS011;7285;50.894;5.462;2023-03-01T09:24:01;1.50;;;1.50;;
14400;SDS011;7285;50.894;5.462;2023-03-01T09:26:28;1.57;;;1.57;;
14400;SDS011;7285;50.894;5.462;2023-03-01T09:28:55;1.93;;;1.93;;
14400;SDS011;7285;50.894;5.462;2023-03-01T09:31:24;1.47;;;1.47;;
14400;SDS011;7285;50.894;5.462;2023-03-01T09:33:51;1.60;;;1.60;;
14400;SDS011;7285;50.894;5.462;2023-03-01T09:36:20;1.60;;;1.50;;
14400;SDS011;7285;50.894;5.462;2023-03-01T09:38:48;1.10;;;1.10;;
14400;SDS011;7285;50.894;5.462;2023-03-01T09:44:07;1.20;;;1.20;;
14400;SDS011;7285;50.894;5.462;2023-03-01T09:46:44;1.50;;;1.50;;
14400;SDS011;7285;50.894;5.462;2023-03-01T09:49:12;1.37;;;1.37;;
14400;SDS011;7285;50.894;5.462;2023-03-01T09:51:44;1.30;;;1.30;;
14400;SDS011;7285;50.894;5.462;2023-03-01T09:54:23;1.33;;;1.33;;
14400;SDS011;7285;50.894;5.462;2023-03-01T09:56:57;2.40;;;2.40;;
14400;SDS011;7285;50.894;5.462;2023-03-01T09:59:33;1.43;;;1.43;;
14400;SDS011;7285;50.894;5.462;2023-03-01T10:02:23;2.17;;;2.17;;
14400;SDS011;7285;50.894;5.462;2023-03-01T10:04:54;1.77;;;1.77;;
14400;SDS011;7285;50.894;5.462;2023-03-01T10:07:30;0.83;;;0.83;;
14400;SDS011;7285;50.894;5.462;2023-03-01T10:10:07;1.80;;;1.80;;
14400;SDS011;7285;50.894;5.462;2023-03-01T10:12:42;1.13;;;1.13;;
14400;SDS011;7285;50.894;5.462;2023-03-01T10:15:11;1.10;;;1.10;;
14400;SDS011;7285;50.894;5.462;2023-03-01T10:17:44;1.60;;;1.60;;
14400;SDS011;7285;50.894;5.462;2023-03-01T10:20:15;1.10;;;1.10;;
14400;SDS011;7285;50.894;5.462;2023-03-01T10:22:45;1.93;;;1.93;;
14400;SDS011;7285;50.894;5.462;2023-03-01T10:25:16;1.27;;;1.27;;
14400;SDS011;7285;50.894;5.462;2023-03-01T10:27:49;1.20;;;1.20;;
14400;SDS011;7285;50.894;5.462;2023-03-01T10:30:19;1.53;;;1.53;;
14400;SDS011;7285;50.894;5.462;2023-03-01T10:32:51;1.10;;;1.10;;
14400;SDS011;7285;50.894;5.462;2023-03-01T10:35:20;1.20;;;1.20;;
14400;SDS011;7285;50.894;5.462;2023-03-01T10:37:58;2.37;;;2.27;;
14400;SDS011;7285;50.894;5.462;2023-03-01T10:40:29;1.33;;;1.33;;
14400;SDS011;7285;50.894;5.462;2023-03-01T10:42:58;1.00;;;1.00;;
14400;SDS011;7285;50.894;5.462;2023-03-01T10:45:30;1.10;;;1.10;;
14400;SDS011;7285;50.894;5.462;2023-03-01T10:48:09;1.53;;;1.53;;
14400;SDS011;7285;50.894;5.462;2023-03-01T10:50:39;1.20;;;1.20;;
14400;SDS011;7285;50.894;5.462;2023-03-01T10:53:16;1.40;;;1.40;;
14400;SDS011;7285;50.894;5.462;2023-03-01T10:56:01;1.33;;;1.33;;
14400;SDS011;7285;50.894;5.462;2023-03-01T10:58:31;1.10;;;1.10;;
14400;SDS011;7285;50.894;5.462;2023-03-01T11:01:00;1.20;;;1.20;;
14400;SDS011;7285;50.894;5.462;2023-03-01T11:03:31;1.17;;;1.17;;
14400;SDS011;7285;50.894;5.462;2023-03-01T11:06:01;1.37;;;1.37;;
14400;SDS011;7285;50.894;5.462;2023-03-01T11:08:36;1.30;;;1.30;;
14400;SDS011;7285;50.894;5.462;2023-03-01T11:13:57;1.57;;;1.57;;
14400;SDS011;7285;50.894;5.462;2023-03-01T11:16:27;1.57;;;1.57;;
14400;SDS011;7285;50.894;5.462;2023-03-01T11:19:00;1.00;;;1.00;;
14400;SDS011;7285;50.894;5.462;2023-03-01T11:21:41;1.10;;;1.10;;
14400;SDS011;7285;50.894;5.462;2023-03-01T11:24:14;1.00;;;1.00;;
14400;SDS011;7285;50.894;5.462;2023-03-01T11:26:44;1.13;;;1.13;;
14400;SDS011;7285;50.894;5.462;2023-03-01T11:29:18;1.10;;;1.10;;
14400;SDS011;7285;50.894;5.462;2023-03-01T11:31:54;1.47;;;1.47;;
14400;SDS011;7285;50.894;5.462;2023-03-01T11:34:28;1.47;;;1.47;;
14400;SDS011;7285;50.894;5.462;2023-03-01T11:37:07;1.67;;;1.67;;
14400;SDS011;7285;50.894;5.462;2023-03-01T11:39:51;1.30;;;1.30;;
14400;SDS011;7285;50.894;5.462;2023-03-01T11:42:27;1.87;;;1.77;;
14400;SDS011;7285;50.894;5.462;2023-03-01T11:45:02;1.20;;;1.20;;
14400;SDS011;7285;50.894;5.462;2023-03-01T11:47:40;1.10;;;1.10;;
14400;SDS011;7285;50.894;5.462;2023-03-01T11:50:33;1.10;;;1.10;;
14400;SDS011;7285;50.894;5.462;2023-03-01T11:53:17;0.83;;;0.83;;
14400;SDS011;7285;50.894;5.462;2023-03-01T11:55:59;1.57;;;1.57;;
14400;SDS011;7285;50.894;5.462;2023-03-01T11:58:43;1.03;;;1.03;;
14400;SDS011;7285;50.894;5.462;2023-03-01T12:01:28;1.00;;;1.00;;
14400;SDS011;7285;50.894;5.462;2023-03-01T12:07:01;1.10;;;1.10;;
14400;SDS011;7285;50.894;5.462;2023-03-01T12:09:49;1.73;;;1.67;;
14400;SDS011;7285;50.894;5.462;2023-03-01T12:12:30;0.97;;;0.97;;
14400;SDS011;7285;50.894;5.462;2023-03-01T12:15:09;1.23;;;1.20;;
14400;SDS011;7285;50.894;5.462;2023-03-01T12:18:09;1.03;;;1.03;;
14400;SDS011;7285;50.894;5.462;2023-03-01T12:20:46;1.10;;;1.10;;
14400;SDS011;7285;50.894;5.462;2023-03-01T12:23:29;1.27;;;1.27;;
14400;SDS011;7285;50.894;5.462;2023-03-01T12:26:24;0.70;;;0.70;;
14400;SDS011;7285;50.894;5.462;2023-03-01T12:29:00;1.27;;;1.27;;
14400;SDS011;7285;50.894;5.462;2023-03-01T12:31:43;1.03;;;1.03;;
14400;SDS011;7285;50.894;5.462;2023-03-01T12:34:22;1.13;;;1.13;;
14400;SDS011;7285;50.894;5.462;2023-03-01T12:37:14;1.70;;;1.67;;
14400;SDS011;7285;50.894;5.462;2023-03-01T12:40:10;0.80;;;0.80;;
14400;SDS011;7285;50.894;5.462;2023-03-01T12:43:00;1.33;;;1.33;;
14400;SDS011;7285;50.894;5.462;2023-03-01T12:45:46;2.67;;;1.37;;
14400;SDS011;7285;50.894;5.462;2023-03-01T12:48:25;1.40;;;1.40;;
14400;SDS011;7285;50.894;5.462;2023-03-01T12:50:59;1.17;;;1.17;;
14400;SDS011;7285;50.894;5.462;2023-03-01T12:53:31;0.70;;;0.70;;
14400;SDS011;7285;50.894;5.462;2023-03-01T12:56:04;0.50;;;0.50;;
14400;SDS011;7285;50.894;5.462;2023-03-01T12:58:35;1.00;;;1.00;;
14400;SDS011;7285;50.894;5.462;2023-03-01T13:01:10;0.83;;;0.83;;
14400;SDS011;7285;50.894;5.462;2023-03-01T13:03:57;0.70;;;0.70;;
14400;SDS011;7285;50.894;5.462;2023-03-01T13:06:44;1.17;;;1.17;;
14400;SDS011;7285;50.894;5.462;2023-03-01T13:09:20;1.17;;;1.17;;
14400;SDS011;7285;50.894;5.462;2023-03-01T13:11:57;0.70;;;0.70;;
14400;SDS011;7285;50.894;5.462;2023-03-01T13:17:30;1.10;;;1.10;;
14400;SDS011;7285;50.894;5.462;2023-03-01T13:20:01;1.80;;;1.70;;
14400;SDS011;7285;50.894;5.462;2023-03-01T13:22:29;0.83;;;0.83;;
14400;SDS011;7285;50.894;5.462;2023-03-01T13:25:11;0.87;;;0.87;;
14400;SDS011;7285;50.894;5.462;2023-03-01T13:27:49;1.10;;;1.10;;
14400;SDS011;7285;50.894;5.462;2023-03-01T13:30:37;1.33;;;1.33;;
14400;SDS011;7285;50.894;5.462;2023-03-01T13:36:13;0.90;;;0.90;;
14400;SDS011;7285;50.894;5.462;2023-03-01T13:39:29;1.73;;;1.63;;
14400;SDS011;7285;50.894;5.462;2023-03-01T13:41:58;1.27;;;1.27;;
14400;SDS011;7285;50.894;5.462;2023-03-01T13:44:28;0.90;;;0.90;;
14400;SDS011;7285;50.894;5.462;2023-03-01T13:46:59;1.33;;;1.33;;
14400;SDS011;7285;50.894;5.462;2023-03-01T13:49:33;1.47;;;1.43;;
14400;SDS011;7285;50.894;5.462;2023-03-01T13:52:14;1.20;;;1.20;;
14400;SDS011;7285;50.894;5.462;2023-03-01T13:55:03;0.93;;;0.93;;
14400;SDS011;7285;50.894;5.462;2023-03-01T13:57:32;1.47;;;1.47;;
14400;SDS011;7285;50.894;5.462;2023-03-01T14:00:06;1.30;;;1.20;;
14400;SDS011;7285;50.894;5.462;2023-03-01T14:02:34;0.97;;;0.97;;
14400;SDS011;7285;50.894;5.462;2023-03-01T14:05:01;1.00;;;1.00;;
14400;SDS011;7285;50.894;5.462;2023-03-01T14:07:32;1.30;;;1.30;;
14400;SDS011;7285;50.894;5.462;2023-03-01T14:10:02;0.93;;;0.93;;
14400;SDS011;7285;50.894;5.462;2023-03-01T14:12:36;1.20;;;1.20;;
14400;SDS011;7285;50.894;5.462;2023-03-01T14:15:15;1.07;;;1.07;;
14400;SDS011;7285;50.894;5.462;2023-03-01T14:17:50;0.50;;;0.50;;
14400;SDS011;7285;50.894;5.462;2023-03-01T14:20:24;0.87;;;0.87;;
14400;SDS011;7285;50.894;5.462;2023-03-01T14:22:52;0.70;;;0.70;;
14400;SDS011;7285;50.894;5.462;2023-03-01T14:25:25;1.03;;;1.03;;
14400;SDS011;7285;50.894;5.462;2023-03-01T14:27:56;0.87;;;0.87;;
14400;SDS011;7285;50.894;5.462;2023-03-01T14:30:26;0.70;;;0.70;;
14400;SDS011;7285;50.894;5.462;2023-03-01T14:32:58;0.60;;;0.60;;
14400;SDS011;7285;50.894;5.462;2023-03-01T14:35:27;1.27;;;1.27;;
14400;SDS011;7285;50.894;5.462;2023-03-01T14:37:56;0.90;;;0.90;;
14400;SDS011;7285;50.894;5.462;2023-03-01T14:40:24;1.37;;;1.37;;
14400;SDS011;7285;50.894;5.462;2023-03-01T14:42:53;0.87;;;0.87;;
14400;SDS011;7285;50.894;5.462;2023-03-01T14:45:24;1.03;;;1.03;;
14400;SDS011;7285;50.894;5.462;2023-03-01T14:47:55;0.73;;;0.73;;
14400;SDS011;7285;50.894;5.462;2023-03-01T14:50:27;1.27;;;1.27;;
14400;SDS011;7285;50.894;5.462;2023-03-01T14:52:57;0.67;;;0.67;;
14400;SDS011;7285;50.894;5.462;2023-03-01T14:55:26;1.07;;;1.07;;
14400;SDS011;7285;50.894;5.462;2023-03-01T14:57:59;1.17;;;1.17;;
14400;SDS011;7285;50.894;5.462;2023-03-01T15:00:31;1.20;;;1.20;;
14400;SDS011;7285;50.894;5.462;2023-03-01T15:03:02;0.60;;;0.60;;
14400;SDS011;7285;50.894;5.462;2023-03-01T15:05:38;1.17;;;1.17;;
14400;SDS011;7285;50.894;5.462;2023-03-01T15:08:08;0.60;;;0.60;;
14400;SDS011;7285;50.894;5.462;2023-03-01T15:10:55;0.60;;;0.60;;
14400;SDS011;7285;50.894;5.462;2023-03-01T15:13:25;13.33;;;2.10;;
14400;SDS011;7285;50.894;5.462;2023-03-01T15:16:01;0.97;;;0.97;;
14400;SDS011;7285;50.894;5.462;2023-03-01T15:18:35;0.80;;;0.80;;
14400;SDS011;7285;50.894;5.462;2023-03-01T15:21:07;2.77;;;2.57;;
14400;SDS011;7285;50.894;5.462;2023-03-01T15:23:35;1.23;;;1.23;;
14400;SDS011;7285;50.894;5.462;2023-03-01T15:26:05;1.27;;;1.27;;
14400;SDS011;7285;50.894;5.462;2023-03-01T15:28:33;1.17;;;1.17;;
14400;SDS011;7285;50.894;5.462;2023-03-01T15:31:07;1.63;;;1.53;;
14400;SDS011;7285;50.894;5.462;2023-03-01T15:33:45;0.90;;;0.90;;
14400;SDS011;7285;50.894;5.462;2023-03-01T15:36:33;0.73;;;0.73;;
14400;SDS011;7285;50.894;5.462;2023-03-01T15:39:05;1.80;;;1.40;;
14400;SDS011;7285;50.894;5.462;2023-03-01T15:41:58;0.70;;;0.70;;